Guide — WDE7328 — position and weather

sailwx.info

Track history (hours):
 
Tides and Currents Weather Stations Pressure Air Temp Water Temp Dewpoint Dewpoint Depression Visibility Wind Speed Wind Dir Waves Ship Positions

Guide

More information available from US FCC via Universal Licensing System and Coast Guard Vessel Documentation Center.

Last reported at 2014-Aug-22 04:33 UTC. Time now 2014-Aug-22 06:02 UTC.
Position N 47°15' W 122°26'.

Length 34 m; draft 5.1 m.

Type: Tug. MMSI: 366759530.

Date/timePositionNaut miles runAvg speedWind from/ knotsBaromVisibWave heightAir tempDewpointWater temp
2014-Aug-22 04:33N 47°15' W 122°26'0 0.0
2014-Aug-22 03:33N 47°15' W 122°26'0 0.0
2014-Aug-22 02:33N 47°15' W 122°26'0 0.0
2014-Aug-22 01:33N 47°15' W 122°26'0 0.0
2014-Aug-22 00:33N 47°15' W 122°26'0 0.0
2014-Aug-21 23:33N 47°15' W 122°26'0 0.0
2014-Aug-21 22:33N 47°15' W 122°26'0 0.0
2014-Aug-21 21:33N 47°15' W 122°26'0 0.0
2014-Aug-21 20:33N 47°15' W 122°26'0 0.0
2014-Aug-21 19:33N 47°15' W 122°26'0 0.0
2014-Aug-21 18:33N 47°15' W 122°26'0 0.0
2014-Aug-21 17:32N 47°15' W 122°26'0 0.0
2014-Aug-21 16:33N 47°15' W 122°26'0 0.0
2014-Aug-21 15:33N 47°15' W 122°26'2 1.6
2014-Aug-21 14:33N 47°17' W 122°25'2 2.0
2014-Aug-21 13:33N 47°16' W 122°23'2 1.7
2014-Aug-21 12:33N 47°16' W 122°25'1 1.5
2014-Aug-21 11:33N 47°17' W 122°26'3 2.6
2014-Aug-21 10:33N 47°16' W 122°23'2 2.3
2014-Aug-21 09:33N 47°17' W 122°26'2 0.8
2014-Aug-21 07:32N 47°17' W 122°24'1 1.0
2014-Aug-21 06:33N 47°16' W 122°25'0 0.3
2014-Aug-21 05:33N 47°16' W 122°25'1 1.1
2014-Aug-21 04:32N 47°15' W 122°26'0 0.0
2014-Aug-21 03:33N 47°15' W 122°26'1 0.6
2014-Aug-21 02:33N 47°16' W 122°26'1 1.3
2014-Aug-21 01:33N 47°16' W 122°25'0 0.0
2014-Aug-21 00:33N 47°17' W 122°25'1 1.5
2014-Aug-20 23:33N 47°18' W 122°26'0 0.0
2014-Aug-20 22:33N 47°18' W 122°26'0 0.0
2014-Aug-20 21:33N 47°18' W 122°26'0 0.0
2014-Aug-20 20:33N 47°18' W 122°26'0 0.0
2014-Aug-20 19:33N 47°18' W 122°26'0 0.0
2014-Aug-20 18:33N 47°18' W 122°26'0 0.0
2014-Aug-20 17:33N 47°18' W 122°26'0 0.0
2014-Aug-20 16:33N 47°18' W 122°26'0 0.0
2014-Aug-20 15:33N 47°18' W 122°26'0 0.0
2014-Aug-20 14:32N 47°18' W 122°26'2 1.6
2014-Aug-20 13:33N 47°16' W 122°24'1 0.9
2014-Aug-20 12:33N 47°16' W 122°23'3 2.8
2014-Aug-20 11:33N 47°18' W 122°27'2 2.0
2014-Aug-20 10:33N 47°16' W 122°24'0 0.0
2014-Aug-20 09:33N 47°16' W 122°24'0 0.2
2014-Aug-20 08:33N 47°16' W 122°25'0 0.1
2014-Aug-20 03:14N 47°16' W 122°24'1 1.2
2014-Aug-20 02:33N 47°16' W 122°25'2 1.6
2014-Aug-20 01:33N 47°18' W 122°26'0 0.0
2014-Aug-20 00:33N 47°18' W 122°26'3 1.5
2014-Aug-19 22:25N 47°16' W 122°22'2 2.2
2014-Aug-19 21:33N 47°17' W 122°24'0 0.5
2014-Aug-19 20:33N 47°16' W 122°24'1 1.4
2014-Aug-19 19:33N 47°16' W 122°26'1 0.8
2014-Aug-19 18:33N 47°15' W 122°26'0 0.0
2014-Aug-19 17:33N 47°15' W 122°26'0 0.0
2014-Aug-19 16:33N 47°15' W 122°26'0 0.0
2014-Aug-19 15:32N 47°15' W 122°26'0 0.0
2014-Aug-19 14:33N 47°15' W 122°26'0 0.0
2014-Aug-19 13:33N 47°15' W 122°26'0 0.0
2014-Aug-19 12:33N 47°15' W 122°26'0 0.0
2014-Aug-19 11:33N 47°15' W 122°26'2 1.8
2014-Aug-19 10:33N 47°17' W 122°26'2 2.0
2014-Aug-19 09:33N 47°16' W 122°23'2 1.9
2014-Aug-19 08:33N 47°15' W 122°26'0 0.0
2014-Aug-19 07:33N 47°15' W 122°26'0 0.0
2014-Aug-19 06:33N 47°15' W 122°26'0 0.0
2014-Aug-19 05:33N 47°15' W 122°26'0 0.0
2014-Aug-19 04:33N 47°15' W 122°26'0 0.0
2014-Aug-19 03:33N 47°15' W 122°26'5 4.7
2014-Aug-19 02:33N 47°20' W 122°27'7 7.3
2014-Aug-19 01:33N 47°27' W 122°25'8 8.4
2014-Aug-19 00:33N 47°35' W 122°24'3 2.6
2014-Aug-18 23:33N 47°36' W 122°21'1 0.8
2014-Aug-18 22:33N 47°36' W 122°22'1 1.3
2014-Aug-18 21:33N 47°35' W 122°21'0 0.0
2014-Aug-18 20:33N 47°35' W 122°21'0 0.0
2014-Aug-18 19:33N 47°35' W 122°21'0 0.0
2014-Aug-18 18:33N 47°35' W 122°21'1 0.6
2014-Aug-18 17:33N 47°35' W 122°21'0 0.0
2014-Aug-18 16:33N 47°35' W 122°21'1 0.6
2014-Aug-18 15:33N 47°35' W 122°21'3 2.8
2014-Aug-18 14:33N 47°37' W 122°22'1 1.3
2014-Aug-18 13:33N 47°38' W 122°24'0 0.5
2014-Aug-18 12:33N 47°37' W 122°24'3 3.2
2014-Aug-18 11:33N 47°35' W 122°21'0 0.0
2014-Aug-18 10:33N 47°35' W 122°21'0 0.0
2014-Aug-18 09:33N 47°35' W 122°21'0 0.0
2014-Aug-18 08:33N 47°35' W 122°21'0 0.0
2014-Aug-18 07:33N 47°35' W 122°21'0 0.0
2014-Aug-18 06:33N 47°35' W 122°21'0 0.0
2014-Aug-18 05:33N 47°35' W 122°21'0 0.0
2014-Aug-18 04:33N 47°35' W 122°21'0 0.0
2014-Aug-18 03:31N 47°35' W 122°21'0 0.0
2014-Aug-18 02:33N 47°35' W 122°21'1 0.7
2014-Aug-18 01:33N 47°36' W 122°21'5 5.2
2014-Aug-18 00:33N 47°34' W 122°28'7 1.1
2014-Aug-17 18:33N 47°33' W 122°38'0 0.2
2014-Aug-17 17:33N 47°33' W 122°38'7 6.8
2014-Aug-17 16:33N 47°35' W 122°28'5 4.5
2014-Aug-17 15:32N 47°35' W 122°21'0 0.0
2014-Aug-17 14:33N 47°35' W 122°21'0 0.0
2014-Aug-17 13:33N 47°35' W 122°21'0 0.5
2014-Aug-17 12:33N 47°35' W 122°22'1 1.3
2014-Aug-17 11:33N 47°36' W 122°20'1 0.4
2014-Aug-17 09:26N 47°35' W 122°21'0 0.0
2014-Aug-17 08:33N 47°35' W 122°21'0 0.4
2014-Aug-17 07:33N 47°36' W 122°21'1 0.8
2014-Aug-17 06:32N 47°36' W 122°22'1 1.2
2014-Aug-17 05:33N 47°35' W 122°21'0 0.0
2014-Aug-17 04:33N 47°35' W 122°21'0 0.0
2014-Aug-17 03:33N 47°35' W 122°21'0 0.0
2014-Aug-17 02:33N 47°35' W 122°21'0 0.0
2014-Aug-17 01:33N 47°35' W 122°21'0 0.0
2014-Aug-17 00:26N 47°35' W 122°21'1 1.0
2014-Aug-16 23:33N 47°36' W 122°21'1 1.0
2014-Aug-16 22:33N 47°35' W 122°21'0 0.2
2014-Aug-16 21:33N 47°35' W 122°21'0 0.0
2014-Aug-16 19:09N 47°35' W 122°21'0 0.0
2014-Aug-16 18:47N 47°35' W 122°21'0 0.0
2014-Aug-16 18:33N 47°35' W 122°21'0 0.0
2014-Aug-16 18:32N 47°35' W 122°21'3 3.3
2014-Aug-16 17:33N 47°35' W 122°25'1 7.8
2014-Aug-16 17:27N 47°34' W 122°26'2 2.7
2014-Aug-16 16:33N 47°36' W 122°24'0 0.2
2014-Aug-16 16:32N 47°36' W 122°24'2 2.1
2014-Aug-16 15:33N 47°35' W 122°21'0 0.0
2014-Aug-16 15:31N 47°35' W 122°21'0 0.0
2014-Aug-16 14:33N 47°35' W 122°21'0 0.0
2014-Aug-16 14:31N 47°35' W 122°21'1 0.5
2014-Aug-16 13:33N 47°35' W 122°22'0 0.0
2014-Aug-16 13:31N 47°35' W 122°22'1 0.9
2014-Aug-16 12:33N 47°36' W 122°22'0 1.1
2014-Aug-16 12:31N 47°36' W 122°22'1 1.3
2014-Aug-16 11:33N 47°35' W 122°21'0 0.0
2014-Aug-16 11:20N 47°35' W 122°21'0 0.0
2014-Aug-16 10:33N 47°35' W 122°21'0 0.0
2014-Aug-16 10:30N 47°35' W 122°21'0 0.0
2014-Aug-16 09:33N 47°35' W 122°21'0 0.0
2014-Aug-16 09:30N 47°35' W 122°21'0 0.0
2014-Aug-16 08:33N 47°35' W 122°21'0 0.0
2014-Aug-16 08:25N 47°35' W 122°21'0 0.0
2014-Aug-16 07:33N 47°35' W 122°21'0 0.0
2014-Aug-16 07:30N 47°35' W 122°21'0 0.1
2014-Aug-16 06:35N 47°35' W 122°21'0 1.4
2014-Aug-16 06:33N 47°35' W 122°21'2 1.8
2014-Aug-16 05:33N 47°37' W 122°21'0 0.0
2014-Aug-16 05:29N 47°37' W 122°21'2 1.9
2014-Aug-16 04:33N 47°35' W 122°21'0 0.0
2014-Aug-16 04:30N 47°35' W 122°21'0 0.0
2014-Aug-16 03:33N 47°35' W 122°21'0 0.1
2014-Aug-16 03:29N 47°35' W 122°21'0 0.0
2014-Aug-16 02:33N 47°35' W 122°21'0 0.0
2014-Aug-16 02:29N 47°35' W 122°21'0 0.0
2014-Aug-16 01:33N 47°35' W 122°21'0 0.0
2014-Aug-16 01:29N 47°35' W 122°21'0 0.2
2014-Aug-16 00:33N 47°35' W 122°21'0 0.2
2014-Aug-16 00:29N 47°35' W 122°21'1 0.9
2014-Aug-15 23:33N 47°36' W 122°21'0 3.4
2014-Aug-15 23:29N 47°36' W 122°22'0 0.4
2014-Aug-15 22:33N 47°36' W 122°22'0 0.0
2014-Aug-15 22:33N 47°36' W 122°22'1 0.9
2014-Aug-15 21:33N 47°35' W 122°21'0 0.0
2014-Aug-15 21:28N 47°35' W 122°21'0 0.0
2014-Aug-15 20:33N 47°35' W 122°21'0 0.0
2014-Aug-15 20:33N 47°35' W 122°21'0 0.0
2014-Aug-15 19:33N 47°35' W 122°21'0 0.0
2014-Aug-15 19:33N 47°35' W 122°21'0 0.0
2014-Aug-15 18:33N 47°35' W 122°21'0 0.0
2014-Aug-15 18:33N 47°35' W 122°21'0 0.0
2014-Aug-15 17:33N 47°35' W 122°21'0 0.0
2014-Aug-15 17:32N 47°35' W 122°21'4 3.9
2014-Aug-15 16:33N 47°33' W 122°26'0 8.0
2014-Aug-15 16:32N 47°33' W 122°26'8 8.6
2014-Aug-15 15:33N 47°25' W 122°22'8 7.6
2014-Aug-15 14:33N 47°18' W 122°27'4 3.7
2014-Aug-15 13:33N 47°16' W 122°23'3 2.6
2014-Aug-15 12:33N 47°17' W 122°26'0 0.4
2014-Aug-15 11:32N 47°18' W 122°26'0 0.0
2014-Aug-15 10:33N 47°18' W 122°26'0 0.0
2014-Aug-15 09:33N 47°18' W 122°26'0 0.0
2014-Aug-15 08:33N 47°18' W 122°26'0 0.0
2014-Aug-15 07:04N 47°18' W 122°26'0 0.0
2014-Aug-15 06:29N 47°18' W 122°26'1 1.6
2014-Aug-15 05:33N 47°16' W 122°24'1 0.2
2014-Aug-15 01:04N 47°16' W 122°24'1 2.3
2014-Aug-15 00:33N 47°17' W 122°25'2 2.0
2014-Aug-14 23:33N 47°15' W 122°23'2 2.1
2014-Aug-14 22:33N 47°15' W 122°26'0 0.0
2014-Aug-14 20:27N 47°15' W 122°26'0 0.0
2014-Aug-14 19:33N 47°15' W 122°26'0 0.0
2014-Aug-14 18:33N 47°15' W 122°26'0 0.0
2014-Aug-14 17:25N 47°15' W 122°26'0 0.0
2014-Aug-14 16:31N 47°15' W 122°26'0 0.0
2014-Aug-14 15:33N 47°15' W 122°26'1 0.8
2014-Aug-14 14:33N 47°16' W 122°27'1 0.8
2014-Aug-14 13:33N 47°17' W 122°27'2 1.6
2014-Aug-14 12:33N 47°17' W 122°25'1 1.2
2014-Aug-14 11:33N 47°16' W 122°23'2 1.8
2014-Aug-14 10:33N 47°17' W 122°25'2 1.7
2014-Aug-14 09:33N 47°16' W 122°24'0 0.0
2014-Aug-14 06:33N 47°16' W 122°23'1 0.6
2014-Aug-14 05:33N 47°15' W 122°23'1 1.2
2014-Aug-14 04:32N 47°16' W 122°24'0 0.0
2014-Aug-14 03:33N 47°16' W 122°24'0 0.0
2014-Aug-14 02:28N 47°16' W 122°24'1 0.7
2014-Aug-14 01:33N 47°17' W 122°25'2 1.8
2014-Aug-14 00:32N 47°15' W 122°23'2 2.2
2014-Aug-13 23:33N 47°15' W 122°26'0 0.0
2014-Aug-13 22:33N 47°15' W 122°26'0 0.0
2014-Aug-13 21:33N 47°15' W 122°26'0 0.0
2014-Aug-13 20:33N 47°15' W 122°26'0 0.0
2014-Aug-13 19:33N 47°15' W 122°26'0 0.0
2014-Aug-13 18:17N 47°15' W 122°26'0 0.0
2014-Aug-13 17:33N 47°15' W 122°26'0 0.0
2014-Aug-13 16:32N 47°15' W 122°26'0 0.0
2014-Aug-13 15:33N 47°15' W 122°26'2 1.6
2014-Aug-13 14:31N 47°16' W 122°24'1 0.8
2014-Aug-13 13:33N 47°16' W 122°23'2 1.9
2014-Aug-13 12:33N 47°17' W 122°25'2 1.6
2014-Aug-13 11:33N 47°16' W 122°23'1 0.6
2014-Aug-13 10:33N 47°16' W 122°24'1 0.5
2014-Aug-13 09:33N 47°17' W 122°25'2 1.7
2014-Aug-13 08:33N 47°15' W 122°23'0 0.0
2014-Aug-13 05:33N 47°16' W 122°23'0 0.2
2014-Aug-13 04:33N 47°16' W 122°23'1 0.9
2014-Aug-13 03:27N 47°17' W 122°24'1 1.1
2014-Aug-13 02:17N 47°16' W 122°22'2 2.5
2014-Aug-13 01:33N 47°17' W 122°24'1 1.3
2014-Aug-13 00:33N 47°17' W 122°26'2 1.9
2014-Aug-12 23:33N 47°16' W 122°24'1 1.0
2014-Aug-12 22:33N 47°17' W 122°25'1 1.4
2014-Aug-12 21:33N 47°18' W 122°26'0 0.0
2014-Aug-12 20:33N 47°18' W 122°26'0 0.0
2014-Aug-12 19:33N 47°18' W 122°26'0 0.0
2014-Aug-12 18:32N 47°18' W 122°26'0 0.0
2014-Aug-12 17:33N 47°18' W 122°26'3 2.9
2014-Aug-12 16:33N 47°16' W 122°23'3 2.8
2014-Aug-12 15:33N 47°17' W 122°26'2 2.0
2014-Aug-12 14:29N 47°15' W 122°26'0 0.0
2014-Aug-12 13:33N 47°15' W 122°26'0 0.0
2014-Aug-12 12:33N 47°15' W 122°26'0 0.0
2014-Aug-12 11:33N 47°15' W 122°26'0 0.0
2014-Aug-12 10:33N 47°15' W 122°26'0 0.0
2014-Aug-12 09:33N 47°15' W 122°26'0 0.0
2014-Aug-12 08:33N 47°15' W 122°26'2 2.1
2014-Aug-12 07:26N 47°15' W 122°22'3 3.1
2014-Aug-12 06:33N 47°17' W 122°25'2 1.8
2014-Aug-12 05:33N 47°15' W 122°26'0 0.0
2014-Aug-12 04:33N 47°15' W 122°26'  
Track history (hours):
 
Tides and Currents Weather Stations Pressure Air Temp Water Temp Dewpoint Dewpoint Depression Visibility Wind Speed Wind Dir Waves Ship Positions

Guide

More information available from US FCC via Universal Licensing System and Coast Guard Vessel Documentation Center.

Last reported at 2014-Aug-22 04:33 UTC. Time now 2014-Aug-22 06:02 UTC.
Position N 47°15' W 122°26'.

Length 34 m; draft 5.1 m.

Type: Tug. MMSI: 366759530.

Date/timePositionNaut miles runAvg speedWind from/ knotsBaromVisibWave heightAir tempDewpointWater temp
2014-Aug-22 04:33N 47°15' W 122°26'0 0.0
2014-Aug-22 03:33N 47°15' W 122°26'0 0.0
2014-Aug-22 02:33N 47°15' W 122°26'0 0.0
2014-Aug-22 01:33N 47°15' W 122°26'0 0.0
2014-Aug-22 00:33N 47°15' W 122°26'0 0.0
2014-Aug-21 23:33N 47°15' W 122°26'0 0.0
2014-Aug-21 22:33N 47°15' W 122°26'0 0.0
2014-Aug-21 21:33N 47°15' W 122°26'0 0.0
2014-Aug-21 20:33N 47°15' W 122°26'0 0.0
2014-Aug-21 19:33N 47°15' W 122°26'0 0.0
2014-Aug-21 18:33N 47°15' W 122°26'0 0.0
2014-Aug-21 17:32N 47°15' W 122°26'0 0.0
2014-Aug-21 16:33N 47°15' W 122°26'0 0.0
2014-Aug-21 15:33N 47°15' W 122°26'2 1.6
2014-Aug-21 14:33N 47°17' W 122°25'2 2.0
2014-Aug-21 13:33N 47°16' W 122°23'2 1.7
2014-Aug-21 12:33N 47°16' W 122°25'1 1.5
2014-Aug-21 11:33N 47°17' W 122°26'3 2.6
2014-Aug-21 10:33N 47°16' W 122°23'2 2.3
2014-Aug-21 09:33N 47°17' W 122°26'2 0.8
2014-Aug-21 07:32N 47°17' W 122°24'1 1.0
2014-Aug-21 06:33N 47°16' W 122°25'0 0.3
2014-Aug-21 05:33N 47°16' W 122°25'1 1.1
2014-Aug-21 04:32N 47°15' W 122°26'0 0.0
2014-Aug-21 03:33N 47°15' W 122°26'1 0.6
2014-Aug-21 02:33N 47°16' W 122°26'1 1.3
2014-Aug-21 01:33N 47°16' W 122°25'0 0.0
2014-Aug-21 00:33N 47°17' W 122°25'1 1.5
2014-Aug-20 23:33N 47°18' W 122°26'0 0.0
2014-Aug-20 22:33N 47°18' W 122°26'0 0.0
2014-Aug-20 21:33N 47°18' W 122°26'0 0.0
2014-Aug-20 20:33N 47°18' W 122°26'0 0.0
2014-Aug-20 19:33N 47°18' W 122°26'0 0.0
2014-Aug-20 18:33N 47°18' W 122°26'0 0.0
2014-Aug-20 17:33N 47°18' W 122°26'0 0.0
2014-Aug-20 16:33N 47°18' W 122°26'0 0.0
2014-Aug-20 15:33N 47°18' W 122°26'0 0.0
2014-Aug-20 14:32N 47°18' W 122°26'2 1.6
2014-Aug-20 13:33N 47°16' W 122°24'1 0.9
2014-Aug-20 12:33N 47°16' W 122°23'3 2.8
2014-Aug-20 11:33N 47°18' W 122°27'2 2.0
2014-Aug-20 10:33N 47°16' W 122°24'0 0.0
2014-Aug-20 09:33N 47°16' W 122°24'0 0.2
2014-Aug-20 08:33N 47°16' W 122°25'0 0.1
2014-Aug-20 03:14N 47°16' W 122°24'1 1.2
2014-Aug-20 02:33N 47°16' W 122°25'2 1.6
2014-Aug-20 01:33N 47°18' W 122°26'0 0.0
2014-Aug-20 00:33N 47°18' W 122°26'3 1.5
2014-Aug-19 22:25N 47°16' W 122°22'2 2.2
2014-Aug-19 21:33N 47°17' W 122°24'0 0.5
2014-Aug-19 20:33N 47°16' W 122°24'1 1.4
2014-Aug-19 19:33N 47°16' W 122°26'1 0.8
2014-Aug-19 18:33N 47°15' W 122°26'0 0.0
2014-Aug-19 17:33N 47°15' W 122°26'0 0.0
2014-Aug-19 16:33N 47°15' W 122°26'0 0.0
2014-Aug-19 15:32N 47°15' W 122°26'0 0.0
2014-Aug-19 14:33N 47°15' W 122°26'0 0.0
2014-Aug-19 13:33N 47°15' W 122°26'0 0.0
2014-Aug-19 12:33N 47°15' W 122°26'0 0.0
2014-Aug-19 11:33N 47°15' W 122°26'2 1.8
2014-Aug-19 10:33N 47°17' W 122°26'2 2.0
2014-Aug-19 09:33N 47°16' W 122°23'2 1.9
2014-Aug-19 08:33N 47°15' W 122°26'0 0.0
2014-Aug-19 07:33N 47°15' W 122°26'0 0.0
2014-Aug-19 06:33N 47°15' W 122°26'0 0.0
2014-Aug-19 05:33N 47°15' W 122°26'0 0.0
2014-Aug-19 04:33N 47°15' W 122°26'0 0.0
2014-Aug-19 03:33N 47°15' W 122°26'5 4.7
2014-Aug-19 02:33N 47°20' W 122°27'7 7.3
2014-Aug-19 01:33N 47°27' W 122°25'8 8.4
2014-Aug-19 00:33N 47°35' W 122°24'3 2.6
2014-Aug-18 23:33N 47°36' W 122°21'1 0.8
2014-Aug-18 22:33N 47°36' W 122°22'1 1.3
2014-Aug-18 21:33N 47°35' W 122°21'0 0.0
2014-Aug-18 20:33N 47°35' W 122°21'0 0.0
2014-Aug-18 19:33N 47°35' W 122°21'0 0.0
2014-Aug-18 18:33N 47°35' W 122°21'1 0.6
2014-Aug-18 17:33N 47°35' W 122°21'0 0.0
2014-Aug-18 16:33N 47°35' W 122°21'1 0.6
2014-Aug-18 15:33N 47°35' W 122°21'3 2.8
2014-Aug-18 14:33N 47°37' W 122°22'1 1.3
2014-Aug-18 13:33N 47°38' W 122°24'0 0.5
2014-Aug-18 12:33N 47°37' W 122°24'3 3.2
2014-Aug-18 11:33N 47°35' W 122°21'0 0.0
2014-Aug-18 10:33N 47°35' W 122°21'0 0.0
2014-Aug-18 09:33N 47°35' W 122°21'0 0.0
2014-Aug-18 08:33N 47°35' W 122°21'0 0.0
2014-Aug-18 07:33N 47°35' W 122°21'0 0.0
2014-Aug-18 06:33N 47°35' W 122°21'0 0.0
2014-Aug-18 05:33N 47°35' W 122°21'0 0.0
2014-Aug-18 04:33N 47°35' W 122°21'0 0.0
2014-Aug-18 03:31N 47°35' W 122°21'0 0.0
2014-Aug-18 02:33N 47°35' W 122°21'1 0.7
2014-Aug-18 01:33N 47°36' W 122°21'5 5.2
2014-Aug-18 00:33N 47°34' W 122°28'7 1.1
2014-Aug-17 18:33N 47°33' W 122°38'0 0.2
2014-Aug-17 17:33N 47°33' W 122°38'7 6.8
2014-Aug-17 16:33N 47°35' W 122°28'5 4.5
2014-Aug-17 15:32N 47°35' W 122°21'0 0.0
2014-Aug-17 14:33N 47°35' W 122°21'0 0.0
2014-Aug-17 13:33N 47°35' W 122°21'0 0.5
2014-Aug-17 12:33N 47°35' W 122°22'1 1.3
2014-Aug-17 11:33N 47°36' W 122°20'1 0.4
2014-Aug-17 09:26N 47°35' W 122°21'0 0.0
2014-Aug-17 08:33N 47°35' W 122°21'0 0.4
2014-Aug-17 07:33N 47°36' W 122°21'1 0.8
2014-Aug-17 06:32N 47°36' W 122°22'1 1.2
2014-Aug-17 05:33N 47°35' W 122°21'0 0.0
2014-Aug-17 04:33N 47°35' W 122°21'0 0.0
2014-Aug-17 03:33N 47°35' W 122°21'0 0.0
2014-Aug-17 02:33N 47°35' W 122°21'0 0.0
2014-Aug-17 01:33N 47°35' W 122°21'0 0.0
2014-Aug-17 00:26N 47°35' W 122°21'1 1.0
2014-Aug-16 23:33N 47°36' W 122°21'1 1.0
2014-Aug-16 22:33N 47°35' W 122°21'0 0.2
2014-Aug-16 21:33N 47°35' W 122°21'0 0.0
2014-Aug-16 19:09N 47°35' W 122°21'0 0.0
2014-Aug-16 18:47N 47°35' W 122°21'0 0.0
2014-Aug-16 18:33N 47°35' W 122°21'0 0.0
2014-Aug-16 18:32N 47°35' W 122°21'3 3.3
2014-Aug-16 17:33N 47°35' W 122°25'1 7.8
2014-Aug-16 17:27N 47°34' W 122°26'2 2.7
2014-Aug-16 16:33N 47°36' W 122°24'0 0.2
2014-Aug-16 16:32N 47°36' W 122°24'2 2.1
2014-Aug-16 15:33N 47°35' W 122°21'0 0.0
2014-Aug-16 15:31N 47°35' W 122°21'0 0.0
2014-Aug-16 14:33N 47°35' W 122°21'0 0.0
2014-Aug-16 14:31N 47°35' W 122°21'1 0.5
2014-Aug-16 13:33N 47°35' W 122°22'0 0.0
2014-Aug-16 13:31N 47°35' W 122°22'1 0.9
2014-Aug-16 12:33N 47°36' W 122°22'0 1.1
2014-Aug-16 12:31N 47°36' W 122°22'1 1.3
2014-Aug-16 11:33N 47°35' W 122°21'0 0.0
2014-Aug-16 11:20N 47°35' W 122°21'0 0.0
2014-Aug-16 10:33N 47°35' W 122°21'0 0.0
2014-Aug-16 10:30N 47°35' W 122°21'0 0.0
2014-Aug-16 09:33N 47°35' W 122°21'0 0.0
2014-Aug-16 09:30N 47°35' W 122°21'0 0.0
2014-Aug-16 08:33N 47°35' W 122°21'0 0.0
2014-Aug-16 08:25N 47°35' W 122°21'0 0.0
2014-Aug-16 07:33N 47°35' W 122°21'0 0.0
2014-Aug-16 07:30N 47°35' W 122°21'0 0.1
2014-Aug-16 06:35N 47°35' W 122°21'0 1.4
2014-Aug-16 06:33N 47°35' W 122°21'2 1.8
2014-Aug-16 05:33N 47°37' W 122°21'0 0.0
2014-Aug-16 05:29N 47°37' W 122°21'2 1.9
2014-Aug-16 04:33N 47°35' W 122°21'0 0.0
2014-Aug-16 04:30N 47°35' W 122°21'0 0.0
2014-Aug-16 03:33N 47°35' W 122°21'0 0.1
2014-Aug-16 03:29N 47°35' W 122°21'0 0.0
2014-Aug-16 02:33N 47°35' W 122°21'0 0.0
2014-Aug-16 02:29N 47°35' W 122°21'0 0.0
2014-Aug-16 01:33N 47°35' W 122°21'0 0.0
2014-Aug-16 01:29N 47°35' W 122°21'0 0.2
2014-Aug-16 00:33N 47°35' W 122°21'0 0.2
2014-Aug-16 00:29N 47°35' W 122°21'1 0.9
2014-Aug-15 23:33N 47°36' W 122°21'0 3.4
2014-Aug-15 23:29N 47°36' W 122°22'0 0.4
2014-Aug-15 22:33N 47°36' W 122°22'0 0.0
2014-Aug-15 22:33N 47°36' W 122°22'1 0.9
2014-Aug-15 21:33N 47°35' W 122°21'0 0.0
2014-Aug-15 21:28N 47°35' W 122°21'0 0.0
2014-Aug-15 20:33N 47°35' W 122°21'0 0.0
2014-Aug-15 20:33N 47°35' W 122°21'0 0.0
2014-Aug-15 19:33N 47°35' W 122°21'0 0.0
2014-Aug-15 19:33N 47°35' W 122°21'0 0.0
2014-Aug-15 18:33N 47°35' W 122°21'0 0.0
2014-Aug-15 18:33N 47°35' W 122°21'0 0.0
2014-Aug-15 17:33N 47°35' W 122°21'0 0.0
2014-Aug-15 17:32N 47°35' W 122°21'4 3.9
2014-Aug-15 16:33N 47°33' W 122°26'0 8.0
2014-Aug-15 16:32N 47°33' W 122°26'8 8.6
2014-Aug-15 15:33N 47°25' W 122°22'8 7.6
2014-Aug-15 14:33N 47°18' W 122°27'4 3.7
2014-Aug-15 13:33N 47°16' W 122°23'3 2.6
2014-Aug-15 12:33N 47°17' W 122°26'0 0.4
2014-Aug-15 11:32N 47°18' W 122°26'0 0.0
2014-Aug-15 10:33N 47°18' W 122°26'0 0.0
2014-Aug-15 09:33N 47°18' W 122°26'0 0.0
2014-Aug-15 08:33N 47°18' W 122°26'0 0.0
2014-Aug-15 07:04N 47°18' W 122°26'0 0.0
2014-Aug-15 06:29N 47°18' W 122°26'1 1.6
2014-Aug-15 05:33N 47°16' W 122°24'1 0.2
2014-Aug-15 01:04N 47°16' W 122°24'1 2.3
2014-Aug-15 00:33N 47°17' W 122°25'2 2.0
2014-Aug-14 23:33N 47°15' W 122°23'2 2.1
2014-Aug-14 22:33N 47°15' W 122°26'0 0.0
2014-Aug-14 20:27N 47°15' W 122°26'0 0.0
2014-Aug-14 19:33N 47°15' W 122°26'0 0.0
2014-Aug-14 18:33N 47°15' W 122°26'0 0.0
2014-Aug-14 17:25N 47°15' W 122°26'0 0.0
2014-Aug-14 16:31N 47°15' W 122°26'0 0.0
2014-Aug-14 15:33N 47°15' W 122°26'1 0.8
2014-Aug-14 14:33N 47°16' W 122°27'1 0.8
2014-Aug-14 13:33N 47°17' W 122°27'2 1.6
2014-Aug-14 12:33N 47°17' W 122°25'1 1.2
2014-Aug-14 11:33N 47°16' W 122°23'2 1.8
2014-Aug-14 10:33N 47°17' W 122°25'2 1.7
2014-Aug-14 09:33N 47°16' W 122°24'0 0.0
2014-Aug-14 06:33N 47°16' W 122°23'1 0.6
2014-Aug-14 05:33N 47°15' W 122°23'1 1.2
2014-Aug-14 04:32N 47°16' W 122°24'0 0.0
2014-Aug-14 03:33N 47°16' W 122°24'0 0.0
2014-Aug-14 02:28N 47°16' W 122°24'1 0.7
2014-Aug-14 01:33N 47°17' W 122°25'2 1.8
2014-Aug-14 00:32N 47°15' W 122°23'2 2.2
2014-Aug-13 23:33N 47°15' W 122°26'0 0.0
2014-Aug-13 22:33N 47°15' W 122°26'0 0.0
2014-Aug-13 21:33N 47°15' W 122°26'0 0.0
2014-Aug-13 20:33N 47°15' W 122°26'0 0.0
2014-Aug-13 19:33N 47°15' W 122°26'0 0.0
2014-Aug-13 18:17N 47°15' W 122°26'0 0.0
2014-Aug-13 17:33N 47°15' W 122°26'0 0.0
2014-Aug-13 16:32N 47°15' W 122°26'0 0.0
2014-Aug-13 15:33N 47°15' W 122°26'2 1.6
2014-Aug-13 14:31N 47°16' W 122°24'1 0.8
2014-Aug-13 13:33N 47°16' W 122°23'2 1.9
2014-Aug-13 12:33N 47°17' W 122°25'2 1.6
2014-Aug-13 11:33N 47°16' W 122°23'1 0.6
2014-Aug-13 10:33N 47°16' W 122°24'1 0.5
2014-Aug-13 09:33N 47°17' W 122°25'2 1.7
2014-Aug-13 08:33N 47°15' W 122°23'0 0.0
2014-Aug-13 05:33N 47°16' W 122°23'0 0.2
2014-Aug-13 04:33N 47°16' W 122°23'1 0.9
2014-Aug-13 03:27N 47°17' W 122°24'1 1.1
2014-Aug-13 02:17N 47°16' W 122°22'2 2.5
2014-Aug-13 01:33N 47°17' W 122°24'1 1.3
2014-Aug-13 00:33N 47°17' W 122°26'2 1.9
2014-Aug-12 23:33N 47°16' W 122°24'1 1.0
2014-Aug-12 22:33N 47°17' W 122°25'1 1.4
2014-Aug-12 21:33N 47°18' W 122°26'0 0.0
2014-Aug-12 20:33N 47°18' W 122°26'0 0.0
2014-Aug-12 19:33N 47°18' W 122°26'0 0.0
2014-Aug-12 18:32N 47°18' W 122°26'0 0.0
2014-Aug-12 17:33N 47°18' W 122°26'3 2.9
2014-Aug-12 16:33N 47°16' W 122°23'3 2.8
2014-Aug-12 15:33N 47°17' W 122°26'2 2.0
2014-Aug-12 14:29N 47°15' W 122°26'0 0.0
2014-Aug-12 13:33N 47°15' W 122°26'0 0.0
2014-Aug-12 12:33N 47°15' W 122°26'0 0.0
2014-Aug-12 11:33N 47°15' W 122°26'0 0.0
2014-Aug-12 10:33N 47°15' W 122°26'0 0.0
2014-Aug-12 09:33N 47°15' W 122°26'0 0.0
2014-Aug-12 08:33N 47°15' W 122°26'2 2.1
2014-Aug-12 07:26N 47°15' W 122°22'3 3.1
2014-Aug-12 06:33N 47°17' W 122°25'2 1.8
2014-Aug-12 05:33N 47°15' W 122°26'0 0.0
2014-Aug-12 04:33N 47°15' W 122°26'  

Dump ship's entire track history